Skip Navigation Links
NOAA logo - Click to go to the NOAA homepage
NOAA's National Weather Service
Alaska Aviation Weather Unit
  NWS logo - Click to go to the NWS homepage
Left Navbar Graphic     12 AKDT = 20 GMT

   
NOAA is celebrating 200 years of science, service, and stewardship. Visit the NOAA 200th celebration Web site to learn more.
USA.gov is the U.S. Government's official Web portal to all Federal, state and local government Web resources and services.
Facebook
NWS on Facebook

Important Change Regarding the AAWU Web Presence

 

Over the last several months, the AAWU has been working to navigate its webpages to a nationally supported server. Security, as well as other needs, have necessitated the change.  We have been given an extension for the site changeover while we diligently work at addressing feedback received. As of July 14, 2017, aawu.arh.noaa.gov will be discontinued. The new AAWU web address is weather.gov/aawu. It is now live and will run in-parallel with the old site until it is discontinued on July 14, 2017. Please continue to send any feedback or questions regarding the new webpages to nws.ar.aawu.webauthors@noaa.gov.  Thank you for your patience during this time of transition.
AAWU Home :: Display TAF Add Bookmark
TAF PAEI 252000Z 2520/2702 VRB06KT 9999 VCSH FEW015 SCT025 BKN040
      QNH2985INS
      BECMG 2602/2603 VRB06KT 9999 NSW FEW030 SCT050 BKN090
      QNH2976INS
      BECMG 2621/2622 35009KT 9000 -SHRA FEW040 BKN060 BKN180
      QNH2975INS TX18/2601Z TN11/2613Z=
METAR PAEI 251458Z 00000KT 10SM BKN028 BKN040 OVC060 13/11 A2997=

METAR PAEI 251558Z 00000KT 10SM FEW015 SCT023 BKN029 BKN043 OVC065 14/12
     A2997=

METAR PAEI 251658Z 06003KT 10SM FEW012 BKN020 OVC040 14/12 A2996=

PAEI 251725Z 23003KT 7SM -SHRA FEW018 SCT023 BKN034 BKN050 OVC070
14/12 A2996=

PAEI 251740Z 00000KT 10SM FEW015 SCT023 BKN050 OVC070 14/12 A2996=

METAR PAEI 251758Z 05004KT 10SM FEW015 BKN021 BKN050 OVC070 14/12
     A2996=

PAEI 251828Z 21003KT 10SM SCT022 BKN070 BKN110 15/12 A2995=

METAR PAEI 251858Z 00000KT 10SM SCT016 BKN025 BKN042 BKN090 16/12
     A2995=

METAR PAEI 251958Z 00000KT 10SM FEW020 SCT026 BKN036 BKN070 16/11
     A2994=


NOAA's National Weather Service
Alaska Aviation Weather Unit
6930 Sand Lake Road
Anchorage, AK 99502-1845
Disclaimer
Credits
Glossary
Privacy Policy
About Us
Career Opportunities
Contact AAWU Internet Services Site last modified: April, 17th 2012